createdAt,value
2019-03-29T00:02:49.153Z,23.43
2019-03-29T00:06:54.424Z,24.80
2019-03-29T00:10:59.774Z,25.43
2019-03-29T00:15:07.928Z,24.90
2019-03-29T00:19:13.274Z,25.13
2019-03-29T00:23:18.562Z,23.60
2019-03-29T00:27:24.898Z,22.97
2019-03-29T00:31:30.177Z,23.67
2019-03-29T00:35:35.481Z,24.33
2019-03-29T00:39:41.019Z,24.00
2019-03-29T00:43:46.247Z,25.90
2019-03-29T00:47:51.577Z,22.87
2019-03-29T00:51:56.870Z,25.00
2019-03-29T00:56:02.159Z,24.20
2019-03-29T01:00:08.086Z,24.90
2019-03-29T01:04:13.366Z,24.67
2019-03-29T01:08:19.006Z,25.03
2019-03-29T01:12:24.271Z,24.90
2019-03-29T01:16:29.592Z,23.90
2019-03-29T01:20:34.877Z,23.37
2019-03-29T01:24:40.162Z,22.17
2019-03-29T01:28:45.441Z,23.47
2019-03-29T01:32:50.703Z,23.10
2019-03-29T01:36:55.993Z,22.23
2019-03-29T01:41:01.357Z,22.77
2019-03-29T01:45:09.988Z,23.27
2019-03-29T01:49:15.887Z,22.87
2019-03-29T01:53:21.342Z,24.07
2019-03-29T01:57:26.622Z,23.20
2019-03-29T02:01:31.903Z,24.30
2019-03-29T02:05:37.273Z,25.40
2019-03-29T02:09:43.541Z,23.97
2019-03-29T02:13:48.820Z,23.70
2019-03-29T02:17:54.094Z,22.77
2019-03-29T02:21:59.383Z,22.20
2019-03-29T02:26:04.663Z,23.27
2019-03-29T02:30:11.479Z,24.80
2019-03-29T02:34:16.758Z,24.37
2019-03-29T02:38:23.524Z,22.53
2019-03-29T02:42:30.066Z,23.43
2019-03-29T02:46:35.342Z,23.63
2019-03-29T02:50:40.682Z,24.50
2019-03-29T02:54:46.003Z,24.77
2019-03-29T02:58:51.334Z,26.57
2019-03-29T03:02:56.616Z,27.00
2019-03-29T03:07:01.895Z,26.47
2019-03-29T03:11:07.175Z,26.77
2019-03-29T03:15:12.895Z,28.57
2019-03-29T03:19:18.170Z,26.07
2019-03-29T03:23:23.480Z,29.77
2019-03-29T03:27:28.703Z,30.43
2019-03-29T03:31:33.994Z,31.07
2019-03-29T03:35:39.282Z,31.93
2019-03-29T03:39:44.568Z,31.80
2019-03-29T03:43:49.831Z,30.03
2019-03-29T03:47:55.111Z,32.77
2019-03-29T03:52:00.758Z,31.97
2019-03-29T03:56:07.383Z,31.83
2019-03-29T04:00:12.741Z,32.77
2019-03-29T04:04:18.004Z,31.00
2019-03-29T04:08:23.430Z,28.53
2019-03-29T04:12:29.672Z,26.27
2019-03-29T04:16:36.018Z,29.30
2019-03-29T04:20:41.313Z,29.23
2019-03-29T04:24:46.612Z,28.27
2019-03-29T04:29:04.181Z,28.97
2019-03-29T04:32:58.819Z,28.53
2019-03-29T04:37:04.163Z,28.53
2019-03-29T04:41:09.632Z,27.40
2019-03-29T04:45:14.906Z,27.57
2019-03-29T04:49:20.179Z,25.87
2019-03-29T04:53:25.466Z,28.37
2019-03-29T04:57:30.749Z,31.00
2019-03-29T05:01:36.037Z,33.90
2019-03-29T05:05:41.313Z,28.83
2019-03-29T05:09:47.547Z,30.60
2019-03-29T05:13:53.305Z,26.97
2019-03-29T05:17:58.580Z,26.53
2019-03-29T05:22:03.854Z,27.20
2019-03-29T05:26:09.137Z,25.23
2019-03-29T05:30:15.053Z,23.93
2019-03-29T05:34:20.329Z,22.60
2019-03-29T05:38:25.613Z,24.80
2019-03-29T05:42:30.907Z,25.73
2019-03-29T05:46:36.191Z,30.87
2019-03-29T05:50:41.468Z,28.00
2019-03-29T05:54:46.801Z,27.33
2019-03-29T05:58:52.189Z,27.77
2019-03-29T06:02:57.467Z,25.27
2019-03-29T06:07:02.789Z,22.47
2019-03-29T06:11:08.137Z,23.57
2019-03-29T06:15:13.603Z,22.67
2019-03-29T06:19:18.905Z,22.60
2019-03-29T06:23:24.222Z,22.10
2019-03-29T06:27:31.754Z,20.33
2019-03-29T06:31:37.870Z,20.70
2019-03-29T06:35:47.930Z,21.33
2019-03-29T06:39:54.130Z,25.10
2019-03-29T06:43:59.506Z,18.93
2019-03-29T06:48:04.893Z,19.33
2019-03-29T06:52:10.157Z,19.17
2019-03-29T06:56:15.510Z,19.10
2019-03-29T07:00:20.790Z,16.87
2019-03-29T07:04:26.069Z,16.67
2019-03-29T07:08:31.360Z,16.07
2019-03-29T07:12:36.757Z,14.93
2019-03-29T07:16:44.847Z,15.10
2019-03-29T07:20:50.119Z,14.87
2019-03-29T07:24:55.402Z,14.40
2019-03-29T07:29:00.685Z,15.33
2019-03-29T07:33:06.047Z,13.60
2019-03-29T07:37:11.329Z,11.47
2019-03-29T07:41:30.648Z,11.10
2019-03-29T07:45:23.629Z,9.50
2019-03-29T07:49:28.957Z,9.73
2019-03-29T07:53:34.349Z,9.53
2019-03-29T07:57:40.194Z,9.40
2019-03-29T08:01:45.510Z,8.30
2019-03-29T08:05:51.705Z,7.33
2019-03-29T08:09:58.058Z,7.67
2019-03-29T08:14:04.043Z,5.03
2019-03-29T08:18:09.513Z,5.97
2019-03-29T08:22:14.931Z,6.30
2019-03-29T08:26:20.177Z,5.83
2019-03-29T08:30:25.500Z,3.50
2019-03-29T08:34:30.805Z,3.20
2019-03-29T08:38:36.077Z,1.90
2019-03-29T08:42:41.350Z,1.80
2019-03-29T08:46:46.613Z,2.00
2019-03-29T08:50:51.918Z,2.30
2019-03-29T08:54:57.203Z,2.57
2019-03-29T08:59:02.494Z,2.67
2019-03-29T09:03:07.836Z,3.00
2019-03-29T09:07:13.119Z,2.83
2019-03-29T09:11:18.462Z,2.60
2019-03-29T09:15:23.796Z,2.40
2019-03-29T09:19:29.097Z,2.70
2019-03-29T09:23:34.369Z,2.77
2019-03-29T09:27:39.653Z,2.03
2019-03-29T09:31:44.885Z,1.97
2019-03-29T09:35:50.160Z,1.77
2019-03-29T09:39:55.456Z,1.53
2019-03-29T09:44:01.093Z,1.90
2019-03-29T09:48:06.562Z,1.70
2019-03-29T09:52:12.064Z,1.93
2019-03-29T09:56:17.394Z,1.93
2019-03-29T10:00:23.662Z,2.23
2019-03-29T10:04:29.130Z,2.17
2019-03-29T10:08:34.442Z,1.90
2019-03-29T10:12:43.795Z,2.40
2019-03-29T10:16:46.638Z,2.20
2019-03-29T10:20:52.727Z,1.93
2019-03-29T10:25:01.896Z,1.80
2019-03-29T10:29:05.821Z,1.70
2019-03-29T10:33:11.647Z,2.27
2019-03-29T10:37:16.926Z,1.93
2019-03-29T10:41:22.685Z,1.80
2019-03-29T10:45:28.355Z,1.87
2019-03-29T10:49:33.693Z,1.60
2019-03-29T10:53:39.045Z,1.73
2019-03-29T10:57:44.409Z,1.60
2019-03-29T11:01:50.864Z,1.90
2019-03-29T11:05:56.294Z,1.80
2019-03-29T11:10:01.654Z,1.93
2019-03-29T11:14:07.256Z,1.70
2019-03-29T11:18:12.518Z,1.67
2019-03-29T11:22:17.765Z,1.70
2019-03-29T11:26:23.043Z,1.83
2019-03-29T11:30:41.545Z,2.07
2019-03-29T11:34:35.803Z,1.83
2019-03-29T11:38:41.071Z,1.83
2019-03-29T11:42:47.095Z,1.90
2019-03-29T11:46:55.702Z,1.83
2019-03-29T11:51:02.533Z,1.90
2019-03-29T11:55:07.942Z,2.00
2019-03-29T11:59:13.284Z,1.33
2019-03-29T12:03:18.690Z,1.77
2019-03-29T12:07:24.177Z,1.83
2019-03-29T12:11:31.508Z,1.57
2019-03-29T12:15:38.594Z,1.80
2019-03-29T12:19:43.854Z,2.07
2019-03-29T12:23:49.173Z,2.50
2019-03-29T12:27:54.450Z,1.77
2019-03-29T12:31:59.729Z,2.23
2019-03-29T12:36:05.148Z,2.17
2019-03-29T12:40:10.559Z,2.57
2019-03-29T12:44:15.959Z,2.40
2019-03-29T12:48:21.220Z,2.50
2019-03-29T12:52:26.771Z,2.20
2019-03-29T12:56:32.039Z,2.60
2019-03-29T13:00:38.282Z,2.73
2019-03-29T13:04:46.867Z,2.60
2019-03-29T13:08:51.910Z,2.73
2019-03-29T13:13:00.566Z,2.90
2019-03-29T13:17:05.478Z,3.00
2019-03-29T13:21:11.789Z,2.77
2019-03-29T13:25:17.134Z,3.30
2019-03-29T13:29:22.477Z,3.30
2019-03-29T13:33:27.729Z,3.13
2019-03-29T13:37:33.013Z,3.40
2019-03-29T13:41:38.306Z,3.50
2019-03-29T13:45:43.827Z,3.80
2019-03-29T13:49:49.091Z,3.90
2019-03-29T13:53:54.463Z,3.63
2019-03-29T13:57:59.734Z,3.60
2019-03-29T14:02:05.385Z,4.30
2019-03-29T14:06:10.658Z,4.47
2019-03-29T14:10:16.078Z,4.53
2019-03-29T14:14:22.190Z,3.73
2019-03-29T14:18:27.561Z,3.73
2019-03-29T14:22:32.995Z,4.53
2019-03-29T14:26:38.591Z,4.33
2019-03-29T14:30:43.925Z,4.23
2019-03-29T14:34:49.254Z,4.60
2019-03-29T14:38:55.437Z,4.33
2019-03-29T14:43:00.993Z,4.30
2019-03-29T14:47:07.616Z,4.70
2019-03-29T14:51:13.029Z,4.67
2019-03-29T14:55:18.574Z,4.77
2019-03-29T14:59:23.842Z,5.13
2019-03-29T15:03:29.325Z,4.77
2019-03-29T15:07:35.017Z,4.47
2019-03-29T15:11:40.774Z,4.50
2019-03-29T15:15:46.103Z,4.67
2019-03-29T15:19:51.378Z,4.70
2019-03-29T15:23:56.715Z,4.93
2019-03-29T15:28:02.037Z,4.60
2019-03-29T15:32:07.302Z,4.70
2019-03-29T15:36:12.817Z,4.83
2019-03-29T15:40:18.287Z,5.23
2019-03-29T15:44:23.794Z,4.93
2019-03-29T15:48:29.531Z,10.00
2019-03-29T15:52:34.830Z,5.03
2019-03-29T15:56:40.409Z,4.73
2019-03-29T16:00:47.040Z,5.00
2019-03-29T16:04:52.493Z,4.73
2019-03-29T16:09:00.170Z,4.40
2019-03-29T16:13:05.506Z,4.17
2019-03-29T16:17:12.246Z,4.20
2019-03-29T16:21:17.789Z,4.33
2019-03-29T16:25:23.369Z,4.67
2019-03-29T16:29:28.749Z,4.90
2019-03-29T16:33:34.173Z,4.40
2019-03-29T16:37:39.445Z,4.20
2019-03-29T16:41:44.786Z,4.20
2019-03-29T16:45:50.075Z,11.17
2019-03-29T16:49:55.393Z,4.30
2019-03-29T16:54:00.680Z,4.43
2019-03-29T16:58:05.949Z,4.13
2019-03-29T17:02:11.234Z,4.97
2019-03-29T17:06:16.524Z,5.00
2019-03-29T17:10:21.788Z,5.10
2019-03-29T17:14:27.075Z,5.07
2019-03-29T17:18:32.354Z,6.40
2019-03-29T17:22:37.780Z,7.13
2019-03-29T17:26:43.149Z,7.07
2019-03-29T17:30:50.066Z,7.07
2019-03-29T17:34:55.687Z,14.40
2019-03-29T17:39:03.621Z,12.60
2019-03-29T17:43:10.191Z,15.97
2019-03-29T17:47:16.833Z,9.00
2019-03-29T17:51:22.211Z,15.13
2019-03-29T17:55:27.802Z,11.97
2019-03-29T17:59:33.719Z,14.17
2019-03-29T18:03:41.161Z,10.93
2019-03-29T18:07:46.469Z,12.07
2019-03-29T18:11:52.211Z,11.67
2019-03-29T18:15:57.671Z,11.90
2019-03-29T18:20:04.953Z,12.60
2019-03-29T18:24:10.582Z,11.93
2019-03-29T18:28:15.889Z,13.13
2019-03-29T18:32:21.180Z,14.17
2019-03-29T18:36:26.544Z,14.73
2019-03-29T18:40:32.217Z,15.30
2019-03-29T18:44:37.546Z,15.90
2019-03-29T18:48:42.829Z,13.77
2019-03-29T18:52:48.223Z,15.87
2019-03-29T18:56:53.211Z,18.00
2019-03-29T19:00:58.467Z,18.60
2019-03-29T19:05:04.302Z,18.57
2019-03-29T19:09:09.466Z,17.00
2019-03-29T19:13:14.466Z,17.53
2019-03-29T19:17:19.533Z,18.97
2019-03-29T19:21:25.745Z,24.13
2019-03-29T19:25:33.202Z,23.77
2019-03-29T19:29:38.562Z,22.23
2019-03-29T19:33:43.841Z,20.40
2019-03-29T19:37:48.846Z,21.10
2019-03-29T19:41:53.850Z,19.80
2019-03-29T19:45:58.830Z,19.37
2019-03-29T19:50:05.327Z,19.73
2019-03-29T19:54:10.444Z,19.20
2019-03-29T19:58:15.507Z,17.53
2019-03-29T20:02:20.900Z,18.27
2019-03-29T20:06:25.917Z,17.93
2019-03-29T20:10:31.181Z,16.80
2019-03-29T20:14:36.129Z,17.97
2019-03-29T20:18:41.193Z,18.13
2019-03-29T20:22:47.397Z,18.63
2019-03-29T20:26:52.666Z,19.37
2019-03-29T20:30:57.890Z,19.10
2019-03-29T20:35:04.758Z,21.27
2019-03-29T20:39:10.402Z,19.87
2019-03-29T20:43:16.094Z,19.73
2019-03-29T20:47:21.636Z,18.90
2019-03-29T20:51:27.388Z,20.23
2019-03-29T20:55:32.701Z,22.50
2019-03-29T20:59:38.074Z,20.97
2019-03-29T21:03:44.002Z,20.43
2019-03-29T21:07:49.388Z,20.00
2019-03-29T21:11:54.381Z,19.77
2019-03-29T21:15:59.382Z,21.90
2019-03-29T21:20:09.214Z,21.37
2019-03-29T21:24:14.254Z,22.50
2019-03-29T21:28:19.299Z,23.93
2019-03-29T21:32:24.414Z,22.33
2019-03-29T21:36:29.439Z,20.30
2019-03-29T21:40:34.586Z,20.87
2019-03-29T21:44:39.656Z,20.17
2019-03-29T21:48:44.659Z,20.53
2019-03-29T21:52:50.074Z,21.53
2019-03-29T21:56:55.250Z,22.77
2019-03-29T22:01:00.309Z,22.23
2019-03-29T22:05:10.055Z,23.53
2019-03-29T22:09:13.769Z,25.77
2019-03-29T22:13:18.906Z,26.00
2019-03-29T22:17:24.000Z,26.90
2019-03-29T22:21:29.010Z,25.47
2019-03-29T22:25:34.066Z,27.33
2019-03-29T22:29:39.268Z,27.63
2019-03-29T22:33:44.353Z,27.77
2019-03-29T22:37:49.343Z,27.80
2019-03-29T22:41:54.728Z,26.00
2019-03-29T22:46:00.943Z,27.03
2019-03-29T22:50:07.726Z,28.83
2019-03-29T22:54:13.005Z,28.33
2019-03-29T22:58:18.542Z,29.00
2019-03-29T23:02:23.586Z,30.23
2019-03-29T23:06:28.649Z,31.07
2019-03-29T23:10:33.651Z,31.10
2019-03-29T23:14:38.661Z,31.57
2019-03-29T23:18:43.661Z,30.80
2019-03-29T23:22:48.637Z,34.30
2019-03-29T23:26:53.642Z,32.40
2019-03-29T23:30:58.706Z,31.30
2019-03-29T23:35:04.940Z,31.03
2019-03-29T23:39:10.561Z,33.43
2019-03-29T23:43:15.551Z,33.77
2019-03-29T23:47:20.556Z,33.37
2019-03-29T23:51:25.647Z,30.73
2019-03-29T23:55:30.637Z,34.17
2019-03-29T23:59:35.645Z,33.30
